createdAt,value
2023-02-03T00:00:37.875Z,3.20
2023-02-03T00:03:03.950Z,4.15
2023-02-03T00:05:30.400Z,3.38
2023-02-03T00:07:56.142Z,3.72
2023-02-03T00:10:22.072Z,3.80
2023-02-03T00:12:48.823Z,2.75
2023-02-03T00:15:14.610Z,3.40
2023-02-03T00:17:40.363Z,3.88
2023-02-03T00:20:06.491Z,5.38
2023-02-03T00:22:32.370Z,5.18
2023-02-03T00:24:58.404Z,3.92
2023-02-03T00:27:24.203Z,4.53
2023-02-03T00:29:49.956Z,4.95
2023-02-03T00:32:15.790Z,4.47
2023-02-03T00:34:41.624Z,4.07
2023-02-03T00:37:07.439Z,4.38
2023-02-03T00:39:35.237Z,3.30
2023-02-03T00:42:01.043Z,4.40
2023-02-03T00:44:26.846Z,4.78
2023-02-03T00:46:52.556Z,3.65
2023-02-03T00:49:18.262Z,3.33
2023-02-03T00:51:43.972Z,3.65
2023-02-03T00:54:10.373Z,4.68
2023-02-03T00:56:36.097Z,4.00
2023-02-03T00:59:01.852Z,5.47
2023-02-03T01:01:27.671Z,4.78
2023-02-03T01:03:54.366Z,4.53
2023-02-03T01:06:20.452Z,3.45
2023-02-03T01:08:47.095Z,3.92
2023-02-03T01:11:14.419Z,4.07
2023-02-03T01:13:40.510Z,3.67
2023-02-03T01:16:07.039Z,3.75
2023-02-03T01:18:32.798Z,4.18
2023-02-03T01:21:03.667Z,3.95
2023-02-03T01:23:29.369Z,4.35
2023-02-03T01:25:55.074Z,3.55
2023-02-03T01:28:20.835Z,3.67
2023-02-03T01:30:46.653Z,3.33
2023-02-03T01:33:12.468Z,4.75
2023-02-03T01:35:38.230Z,3.28
2023-02-03T01:38:04.011Z,3.20
2023-02-03T01:40:29.746Z,4.38
2023-02-03T01:42:55.469Z,3.65
2023-02-03T01:45:21.214Z,3.00
2023-02-03T01:47:51.636Z,3.38
2023-02-03T01:50:20.039Z,2.97
2023-02-03T01:52:50.799Z,2.55
2023-02-03T01:57:48.280Z,2.85
2023-02-03T02:00:14.159Z,3.92
2023-02-03T02:02:41.285Z,2.13
2023-02-03T02:05:07.251Z,2.97
2023-02-03T02:07:33.904Z,2.08
2023-02-03T02:09:59.680Z,2.50
2023-02-03T02:12:25.447Z,1.88
2023-02-03T02:14:51.219Z,2.25
2023-02-03T02:17:23.220Z,2.08
2023-02-03T02:20:10.180Z,2.42
2023-02-03T02:23:14.514Z,2.08
2023-02-03T02:25:52.198Z,1.70
2023-02-03T02:28:36.569Z,2.10
2023-02-03T02:31:02.391Z,1.95
2023-02-03T02:33:38.191Z,2.80
2023-02-03T02:36:18.400Z,1.92
2023-02-03T02:38:44.107Z,2.00
2023-02-03T02:41:18.961Z,2.35
2023-02-03T02:43:51.123Z,2.10
2023-02-03T02:46:19.322Z,1.60
2023-02-03T02:48:45.118Z,2.30
2023-02-03T02:51:12.208Z,2.20
2023-02-03T02:53:40.504Z,2.03
2023-02-03T02:56:07.752Z,2.03
2023-02-03T02:58:34.769Z,2.22
2023-02-03T03:01:01.326Z,2.25
2023-02-03T03:03:27.058Z,1.90
2023-02-03T03:05:52.766Z,1.70
2023-02-03T03:08:20.540Z,2.00
2023-02-03T03:10:46.549Z,2.00
2023-02-03T03:13:16.094Z,1.73
2023-02-03T03:15:43.139Z,1.50
2023-02-03T03:18:23.853Z,1.33
2023-02-03T03:20:51.123Z,1.90
2023-02-03T03:23:21.715Z,1.65
2023-02-03T03:25:51.149Z,1.73
2023-02-03T03:28:26.009Z,1.75
2023-02-03T03:30:52.558Z,1.42
2023-02-03T03:33:19.369Z,1.63
2023-02-03T03:35:48.799Z,1.85
2023-02-03T03:38:34.838Z,1.60
2023-02-03T03:41:06.486Z,1.90
2023-02-03T03:43:34.030Z,2.33
2023-02-03T03:46:09.736Z,2.05
2023-02-03T03:48:47.165Z,2.40
2023-02-03T03:51:18.602Z,2.25
2023-02-03T03:53:45.853Z,2.75
2023-02-03T03:56:15.157Z,2.85
2023-02-03T03:58:44.630Z,2.90
2023-02-03T04:01:10.875Z,3.38
2023-02-03T04:03:45.103Z,3.58
2023-02-03T04:06:11.240Z,3.25
2023-02-03T04:08:38.669Z,4.80
2023-02-03T04:11:04.792Z,4.00
2023-02-03T04:13:30.731Z,3.97
2023-02-03T04:15:56.496Z,4.97
2023-02-03T04:18:22.270Z,5.50
2023-02-03T04:20:48.183Z,4.32
2023-02-03T04:23:13.923Z,5.20
2023-02-03T04:25:39.642Z,6.22
2023-02-03T04:28:06.215Z,6.10
2023-02-03T04:30:32.057Z,5.63
2023-02-03T04:32:57.845Z,6.50
2023-02-03T04:35:23.745Z,6.82
2023-02-03T04:37:49.492Z,7.90
2023-02-03T04:40:15.316Z,8.20
2023-02-03T04:42:41.114Z,8.30
2023-02-03T04:45:08.107Z,8.13
2023-02-03T04:47:34.155Z,9.07
2023-02-03T04:50:00.162Z,9.70
2023-02-03T04:52:25.945Z,9.55
2023-02-03T04:54:51.665Z,11.77
2023-02-03T04:57:17.421Z,10.02
2023-02-03T04:59:43.150Z,10.88
2023-02-03T05:02:08.944Z,10.90
2023-02-03T05:04:34.675Z,10.10
2023-02-03T05:07:00.421Z,10.95
2023-02-03T05:09:26.191Z,11.50
2023-02-03T05:11:52.321Z,10.90
2023-02-03T05:14:18.042Z,11.38
2023-02-03T05:16:43.899Z,10.68
2023-02-03T05:19:09.647Z,12.02
2023-02-03T05:21:35.387Z,12.63
2023-02-03T05:24:02.614Z,11.20
2023-02-03T05:26:28.439Z,11.43
2023-02-03T05:28:56.630Z,12.00
2023-02-03T05:31:23.522Z,11.75
2023-02-03T05:33:49.483Z,12.65
2023-02-03T05:36:21.747Z,11.68
2023-02-03T05:38:47.704Z,12.70
2023-02-03T05:41:33.560Z,10.60
2023-02-03T05:43:59.587Z,12.20
2023-02-03T05:46:26.122Z,11.23
2023-02-03T05:48:52.173Z,10.63
2023-02-03T05:51:18.251Z,12.35
2023-02-03T05:53:47.004Z,11.60
2023-02-03T05:56:12.857Z,10.98
2023-02-03T05:58:38.708Z,11.02
2023-02-03T06:01:04.660Z,10.63
2023-02-03T06:03:31.023Z,11.60
2023-02-03T06:06:38.696Z,12.18
2023-02-03T06:09:05.900Z,11.95
2023-02-03T06:11:33.296Z,11.07
2023-02-03T06:14:01.578Z,11.32
2023-02-03T06:16:28.264Z,11.15
2023-02-03T06:19:00.044Z,11.80
2023-02-03T06:21:26.211Z,11.32
2023-02-03T06:23:53.338Z,11.05
2023-02-03T06:26:21.320Z,11.85
2023-02-03T06:28:52.776Z,11.15
2023-02-03T06:31:20.163Z,10.95
2023-02-03T06:33:47.457Z,10.98
2023-02-03T06:36:16.948Z,11.48
2023-02-03T06:38:42.983Z,11.90
2023-02-03T06:41:08.862Z,11.93
2023-02-03T06:43:35.028Z,12.10
2023-02-03T06:46:07.483Z,12.80
2023-02-03T06:48:37.964Z,12.25
2023-02-03T06:51:05.520Z,11.32
2023-02-03T06:53:31.492Z,12.18
2023-02-03T06:55:58.555Z,10.85
2023-02-03T06:58:25.614Z,10.43
2023-02-03T07:00:55.156Z,11.20
2023-02-03T07:03:24.150Z,12.30
2023-02-03T07:05:56.651Z,10.38
2023-02-03T07:08:28.297Z,11.52
2023-02-03T07:10:54.842Z,10.15
2023-02-03T07:13:26.136Z,10.63
2023-02-03T07:15:52.197Z,9.90
2023-02-03T07:18:45.901Z,10.90
2023-02-03T07:21:10.884Z,9.60
2023-02-03T07:23:36.889Z,9.63
2023-02-03T07:26:04.819Z,10.77
2023-02-03T07:28:34.720Z,10.80
2023-02-03T07:31:08.083Z,10.57
2023-02-03T07:33:35.406Z,11.73
2023-02-03T07:36:01.480Z,10.82
2023-02-03T07:38:29.397Z,11.00
2023-02-03T07:40:55.447Z,10.95
2023-02-03T07:43:22.243Z,10.68
2023-02-03T07:45:48.200Z,12.48
2023-02-03T07:48:14.293Z,10.23
2023-02-03T07:50:40.548Z,10.27
2023-02-03T07:53:11.343Z,10.13
2023-02-03T07:58:04.042Z,8.88
2023-02-03T08:00:30.248Z,9.13
2023-02-03T08:02:56.271Z,8.35
2023-02-03T08:05:53.738Z,9.13
2023-02-03T08:08:20.173Z,7.90
2023-02-03T08:10:47.714Z,7.18
2023-02-03T08:13:14.187Z,7.72
2023-02-03T08:15:40.091Z,7.20
2023-02-03T08:18:08.492Z,7.78
2023-02-03T08:20:35.574Z,7.45
2023-02-03T08:23:04.679Z,7.55
2023-02-03T08:25:31.577Z,7.90
2023-02-03T08:27:58.360Z,7.72
2023-02-03T08:30:26.199Z,7.85
2023-02-03T08:32:57.107Z,7.28
2023-02-03T08:37:57.244Z,7.05
2023-02-03T08:40:23.523Z,7.63
2023-02-03T08:42:49.429Z,7.32
2023-02-03T08:45:15.547Z,6.60
2023-02-03T08:47:44.715Z,7.32
2023-02-03T08:50:11.298Z,6.95
2023-02-03T08:52:39.686Z,6.90
2023-02-03T08:55:06.595Z,7.18
2023-02-03T08:57:33.805Z,6.88
2023-02-03T08:59:59.763Z,6.03
2023-02-03T09:02:26.401Z,6.18
2023-02-03T09:05:11.405Z,6.35
2023-02-03T09:07:37.517Z,5.85
2023-02-03T09:10:04.116Z,5.95
2023-02-03T09:12:30.276Z,5.53
2023-02-03T09:17:45.761Z,4.78
2023-02-03T09:20:15.229Z,5.75
2023-02-03T09:22:41.584Z,3.75
2023-02-03T09:25:09.181Z,4.07
2023-02-03T09:27:36.331Z,4.78
2023-02-03T09:30:03.362Z,4.03
2023-02-03T09:35:58.806Z,4.35
2023-02-03T09:47:21.934Z,4.00
2023-02-03T09:49:50.147Z,3.88
2023-02-03T09:52:19.814Z,3.25
2023-02-03T09:54:51.977Z,3.50
2023-02-03T09:57:22.518Z,3.83
2023-02-03T09:59:49.672Z,3.05
2023-02-03T10:02:22.849Z,3.15
2023-02-03T10:05:13.947Z,3.55
2023-02-03T10:07:41.687Z,3.88
2023-02-03T10:10:15.255Z,3.70
2023-02-03T10:12:48.132Z,3.20
2023-02-03T10:15:21.116Z,2.88
2023-02-03T10:17:53.159Z,2.70
2023-02-03T10:20:40.004Z,2.55
2023-02-03T10:23:29.363Z,2.50
2023-02-03T10:25:57.933Z,2.60
2023-02-03T10:28:26.466Z,3.25
2023-02-03T10:33:40.529Z,2.65
2023-02-03T10:36:15.223Z,2.50
2023-02-03T10:41:39.810Z,2.05
2023-02-03T10:44:12.384Z,1.75
2023-02-03T10:46:40.429Z,1.50
2023-02-03T10:49:12.129Z,1.80
2023-02-03T10:51:48.493Z,1.60
2023-02-03T10:54:29.565Z,1.20
2023-02-03T10:56:58.105Z,1.77
2023-02-03T10:59:36.929Z,1.90
2023-02-03T11:02:12.768Z,1.38
2023-02-03T11:04:38.719Z,0.75
2023-02-03T11:07:23.179Z,1.00
2023-02-03T11:09:51.849Z,1.00
2023-02-03T11:12:18.917Z,1.40
2023-02-03T11:20:30.431Z,1.30
2023-02-03T11:22:56.855Z,1.85
2023-02-03T11:25:32.529Z,1.98
2023-02-03T11:28:04.941Z,1.45
2023-02-03T11:33:18.055Z,2.05
2023-02-03T11:36:01.575Z,2.45
2023-02-03T11:38:31.990Z,2.92
2023-02-03T11:40:59.543Z,2.92
2023-02-03T11:43:26.217Z,2.88
2023-02-03T11:45:52.671Z,2.58
2023-02-03T11:48:22.571Z,3.50
2023-02-03T11:50:54.551Z,4.70
2023-02-03T11:53:30.806Z,3.95
2023-02-03T11:56:04.989Z,3.33
2023-02-03T11:58:44.555Z,3.03
2023-02-03T12:01:22.268Z,3.90
2023-02-03T12:03:51.380Z,2.40
2023-02-03T12:06:20.442Z,3.72
2023-02-03T12:08:59.200Z,3.47
2023-02-03T12:11:43.979Z,5.43
2023-02-03T12:14:28.289Z,3.70
2023-02-03T12:17:09.270Z,3.38
2023-02-03T12:19:38.488Z,5.18
2023-02-03T12:22:14.211Z,3.72
2023-02-03T12:24:43.095Z,3.72
2023-02-03T12:27:09.427Z,4.78
2023-02-03T12:29:45.331Z,6.13
2023-02-03T12:32:21.859Z,4.25
2023-02-03T12:34:52.875Z,3.88
2023-02-03T12:37:27.367Z,3.30
2023-02-03T12:39:56.029Z,5.32
2023-02-03T12:42:35.819Z,3.63
2023-02-03T12:45:05.582Z,4.32
2023-02-03T12:47:35.525Z,6.28
2023-02-03T12:50:19.396Z,2.95
2023-02-03T12:52:50.225Z,4.50
2023-02-03T12:57:49.112Z,4.45
2023-02-03T13:00:15.243Z,3.53
2023-02-03T13:03:01.011Z,4.38
2023-02-03T13:05:42.373Z,3.22
2023-02-03T13:08:22.015Z,4.47
2023-02-03T13:45:57.992Z,2.03
2023-02-03T13:48:34.751Z,1.83
2023-02-03T13:51:16.133Z,2.58
2023-02-03T14:35:42.862Z,5.13
2023-02-03T14:38:21.451Z,5.25
2023-02-03T14:40:56.451Z,4.53
2023-02-03T14:43:40.940Z,7.82
2023-02-03T14:46:19.267Z,5.82
2023-02-03T14:49:08.375Z,5.15
2023-02-03T14:51:41.901Z,5.80
2023-02-03T14:54:27.279Z,4.20
2023-02-03T14:57:15.773Z,3.88
2023-02-03T14:59:44.538Z,3.55
2023-02-03T15:02:10.953Z,4.32
2023-02-03T15:04:37.135Z,3.85
2023-02-03T15:07:08.471Z,7.03
2023-02-03T15:09:38.991Z,4.75
2023-02-03T15:12:17.970Z,4.45
2023-02-03T15:14:45.025Z,3.83
2023-02-03T15:17:23.172Z,5.43
2023-02-03T15:19:59.058Z,3.80
2023-02-03T15:22:26.192Z,3.90
2023-02-03T15:24:57.774Z,3.20
2023-02-03T15:27:28.419Z,4.15
2023-02-03T15:30:03.282Z,3.70
2023-02-03T15:32:38.887Z,4.97
2023-02-03T15:35:07.566Z,5.03
2023-02-03T15:37:48.545Z,3.42
2023-02-03T15:40:26.411Z,3.97
2023-02-03T15:43:01.889Z,4.40
2023-02-03T15:45:41.708Z,4.60
2023-02-03T15:48:25.807Z,3.35
2023-02-03T15:51:35.886Z,3.53
2023-02-03T15:54:04.998Z,3.63
2023-02-03T15:56:38.373Z,4.28
2023-02-03T15:59:05.686Z,3.40
2023-02-03T16:01:36.638Z,4.35
2023-02-03T16:04:09.265Z,5.22
2023-02-03T16:06:45.643Z,3.53
2023-02-03T16:09:41.698Z,4.05
2023-02-03T16:12:13.540Z,4.28
2023-02-03T16:14:39.333Z,4.07
2023-02-03T16:17:06.491Z,4.85
2023-02-03T16:19:33.991Z,3.97
2023-02-03T16:21:59.869Z,4.80
2023-02-03T16:24:31.908Z,4.22
2023-02-03T16:27:16.639Z,5.93
2023-02-03T16:30:02.414Z,3.88
2023-02-03T16:32:51.295Z,6.03
2023-02-03T16:35:35.907Z,4.22
2023-02-03T16:38:26.095Z,4.05
2023-02-03T16:41:10.358Z,4.25
2023-02-03T16:43:54.676Z,4.22
2023-02-03T16:46:39.699Z,4.03
2023-02-03T16:49:24.113Z,5.72
2023-02-03T16:51:55.283Z,5.43
2023-02-03T16:54:21.327Z,4.90
2023-02-03T16:56:47.162Z,5.22
2023-02-03T16:59:12.979Z,3.88
2023-02-03T17:01:41.269Z,3.88
2023-02-03T17:04:07.798Z,4.10
2023-02-03T17:06:36.766Z,4.88
2023-02-03T17:09:04.227Z,4.93
2023-02-03T17:11:30.115Z,4.35
2023-02-03T17:13:57.312Z,3.90
2023-02-03T17:16:24.844Z,3.95
2023-02-03T17:18:50.990Z,5.10
2023-02-03T17:21:21.482Z,4.53
2023-02-03T17:23:47.340Z,3.80
2023-02-03T17:26:13.523Z,4.45
2023-02-03T17:28:43.050Z,3.53
2023-02-03T17:31:14.683Z,3.42
2023-02-03T17:33:40.984Z,4.55
2023-02-03T17:36:17.379Z,3.20
2023-02-03T17:55:10.193Z,4.88
2023-02-03T17:57:36.492Z,3.75
2023-02-03T18:00:03.190Z,3.42
2023-02-03T18:02:29.515Z,5.32
2023-02-03T18:04:55.502Z,5.18
2023-02-03T18:07:21.350Z,4.97
2023-02-03T18:09:47.587Z,3.83
2023-02-03T18:12:13.462Z,3.92
2023-02-03T18:14:40.764Z,4.03
2023-02-03T18:17:07.896Z,4.22
2023-02-03T18:19:33.824Z,5.25
2023-02-03T18:22:04.778Z,4.93
2023-02-03T18:24:31.114Z,5.10
2023-02-03T18:27:01.809Z,4.78
2023-02-03T18:29:28.159Z,4.57
2023-02-03T18:31:54.540Z,5.45
2023-02-03T18:34:20.536Z,6.25
2023-02-03T18:36:46.737Z,4.15
2023-02-03T18:39:13.967Z,3.35
2023-02-03T18:41:40.166Z,5.05
2023-02-03T18:44:06.102Z,4.18
2023-02-03T18:46:32.474Z,4.00
2023-02-03T18:48:58.771Z,3.22
2023-02-03T18:51:25.492Z,4.07
2023-02-03T18:53:51.599Z,4.30
2023-02-03T18:56:22.435Z,4.97
2023-02-03T19:01:24.940Z,2.85
2023-02-03T19:03:51.346Z,5.95
2023-02-03T19:06:18.056Z,3.28
2023-02-03T19:08:44.176Z,4.30
2023-02-03T19:11:11.736Z,4.00
2023-02-03T19:13:37.522Z,3.22
2023-02-03T19:16:04.240Z,3.67
2023-02-03T19:18:31.497Z,4.13
2023-02-03T19:21:05.134Z,4.45
2023-02-03T19:23:31.036Z,4.10
2023-02-03T19:25:56.842Z,5.03
2023-02-03T19:28:30.478Z,3.63
2023-02-03T19:31:07.840Z,3.53
2023-02-03T19:33:34.092Z,4.38
2023-02-03T19:36:00.280Z,4.72
2023-02-03T19:38:26.228Z,4.68
2023-02-03T19:40:52.011Z,3.15
2023-02-03T19:43:17.901Z,2.70
2023-02-03T19:45:44.048Z,3.13
2023-02-03T19:48:09.818Z,2.95
2023-02-03T19:50:37.087Z,3.95
2023-02-03T19:53:03.435Z,3.10
2023-02-03T19:55:30.216Z,3.05
2023-02-03T19:57:56.858Z,2.53
2023-02-03T20:00:22.653Z,2.45
2023-02-03T20:02:48.376Z,2.60
2023-02-03T20:05:14.564Z,2.35
2023-02-03T20:07:40.464Z,1.75
2023-02-03T20:10:06.752Z,2.15
2023-02-03T20:12:32.670Z,2.72
2023-02-03T20:15:01.904Z,1.55
2023-02-03T20:17:27.882Z,1.75
2023-02-03T20:19:58.978Z,2.13
2023-02-03T20:22:24.788Z,2.13
2023-02-03T20:24:50.636Z,1.67
2023-02-03T20:27:17.360Z,2.92
2023-02-03T20:29:43.667Z,1.70
2023-02-03T20:32:10.931Z,1.60
2023-02-03T20:34:36.793Z,1.33
2023-02-03T20:37:06.993Z,2.42
2023-02-03T20:39:32.838Z,2.15
2023-02-03T20:41:58.703Z,1.40
2023-02-03T20:44:24.615Z,1.52
2023-02-03T20:46:52.021Z,2.65
2023-02-03T20:49:19.293Z,2.10
2023-02-03T20:51:48.125Z,1.58
2023-02-03T20:54:15.543Z,1.60
2023-02-03T20:56:41.561Z,1.92
2023-02-03T20:59:09.535Z,1.83
2023-02-03T21:01:35.335Z,2.45
2023-02-03T21:04:20.085Z,2.45
2023-02-03T21:06:46.079Z,2.10
2023-02-03T21:09:14.315Z,1.80
2023-02-03T21:11:40.658Z,2.53
2023-02-03T21:14:17.928Z,1.83
2023-02-03T21:16:44.091Z,1.80
2023-02-03T21:19:30.192Z,1.25
2023-02-03T21:22:03.764Z,1.65
2023-02-03T21:24:32.418Z,1.83
2023-02-03T21:27:00.660Z,1.20
2023-02-03T21:29:29.577Z,1.40
2023-02-03T21:31:55.653Z,1.55
2023-02-03T21:34:26.029Z,1.02
2023-02-03T21:36:57.366Z,1.00
2023-02-03T21:39:27.983Z,0.85
2023-02-03T21:41:54.355Z,0.70
2023-02-03T21:44:24.935Z,0.77
2023-02-03T21:46:50.783Z,0.88
2023-02-03T21:49:18.352Z,0.70
2023-02-03T21:52:18.550Z,1.52
2023-02-03T21:54:44.488Z,0.80
2023-02-03T21:57:13.375Z,0.40
2023-02-03T21:59:42.357Z,0.82
2023-02-03T22:02:38.839Z,0.98
2023-02-03T22:05:04.824Z,0.60
2023-02-03T22:07:30.877Z,0.60
2023-02-03T22:09:56.872Z,0.80
2023-02-03T22:12:23.683Z,1.00
2023-02-03T22:14:50.328Z,0.63
2023-02-03T22:17:19.333Z,0.38
2023-02-03T22:19:46.268Z,0.60
2023-02-03T22:22:12.203Z,0.60
2023-02-03T22:24:38.308Z,0.52
2023-02-03T22:27:06.222Z,0.70
2023-02-03T22:29:32.227Z,0.38
2023-02-03T22:31:59.249Z,0.50
2023-02-03T22:34:25.288Z,0.30
2023-02-03T22:36:51.258Z,0.70
2023-02-03T22:39:17.650Z,0.80
2023-02-03T22:41:43.496Z,0.50
2023-02-03T22:44:15.389Z,0.52
2023-02-03T22:46:41.853Z,0.70
2023-02-03T22:49:07.724Z,0.60
2023-02-03T22:51:33.593Z,0.82
2023-02-03T22:54:00.449Z,0.95
2023-02-03T22:56:26.378Z,0.70
2023-02-03T22:58:52.116Z,0.60
2023-02-03T23:01:17.822Z,0.60
2023-02-03T23:03:43.538Z,0.43
2023-02-03T23:06:09.265Z,0.40
2023-02-03T23:08:35.040Z,0.80
2023-02-03T23:11:01.116Z,0.82
2023-02-03T23:13:29.981Z,0.70
2023-02-03T23:15:56.206Z,0.70
2023-02-03T23:18:22.262Z,0.70
2023-02-03T23:20:51.130Z,0.60
2023-02-03T23:23:21.413Z,1.08
2023-02-03T23:25:47.295Z,0.80
2023-02-03T23:28:13.721Z,0.95
2023-02-03T23:30:39.486Z,0.98
2023-02-03T23:33:05.382Z,0.85
2023-02-03T23:35:46.079Z,0.77
2023-02-03T23:40:37.447Z,1.10
2023-02-03T23:43:03.240Z,1.10
2023-02-03T23:45:28.998Z,0.80
2023-02-03T23:47:54.719Z,0.82
2023-02-03T23:50:20.492Z,1.45
2023-02-03T23:52:46.517Z,0.90
2023-02-03T23:55:14.182Z,2.25
2023-02-03T23:57:42.846Z,1.35
